Time;durP1;ratioP1;P1;durP2;ratioP2;P2;SDS_P1;SDS_P2;PMS_P1;PMS_P2;Temp;Humidity;BMP_temperature;BMP_pressure;BME280_temperature;BME280_humidity;BME280_pressure;Samples;Min_cycle;Max_cycle;Signal;HPM_P1;HPM_P2
2023/08/30 00:00:39;;;;;;;12.70;11.70;;;12.70;1.00;;;;;;6340679;22;20205;-57
2023/08/30 00:03:06;;;;;;;13.23;12.03;;;12.80;1.00;;;;;;6341628;22;20581;-56
2023/08/30 00:05:31;;;;;;;13.87;12.87;;;12.80;1.00;;;;;;6343094;22;20400;-56
2023/08/30 00:07:57;;;;;;;14.93;13.63;;;12.80;1.00;;;;;;6342453;22;20824;-57
2023/08/30 00:10:23;;;;;;;14.23;13.13;;;12.80;1.00;;;;;;6343593;22;20159;-57
2023/08/30 00:12:48;;;;;;;14.20;13.10;;;12.80;1.00;;;;;;6316439;22;20178;-57
2023/08/30 00:15:14;;;;;;;14.70;13.07;;;12.80;1.00;;;;;;6342844;22;20603;-55
2023/08/30 00:17:40;;;;;;;15.73;14.33;;;12.80;1.00;;;;;;6343457;22;20147;-55
2023/08/30 00:20:06;;;;;;;14.00;12.80;;;12.80;1.00;;;;;;6342819;22;20271;-58
2023/08/30 00:22:32;;;;;;;14.90;13.80;;;12.70;1.00;;;;;;6342016;22;20615;-57
2023/08/30 00:24:57;;;;;;;13.43;12.43;;;12.70;1.00;;;;;;6341226;22;20389;-57
2023/08/30 00:27:23;;;;;;;14.43;13.33;;;12.70;1.00;;;;;;6341755;22;20210;-57
2023/08/30 00:29:49;;;;;;;13.37;12.20;;;12.70;1.00;;;;;;6341583;22;20423;-57
2023/08/30 00:32:15;;;;;;;13.67;12.47;;;12.80;1.00;;;;;;6341503;22;20468;-55
2023/08/30 00:34:41;;;;;;;14.10;12.83;;;12.80;1.00;;;;;;6341657;22;20353;-56
2023/08/30 00:37:06;;;;;;;14.87;13.73;;;12.80;1.00;;;;;;6341817;22;20455;-57
2023/08/30 00:39:32;;;;;;;15.53;14.10;;;12.70;1.00;;;;;;6314576;22;20208;-55
2023/08/30 00:41:58;;;;;;;16.70;15.27;;;12.70;1.00;;;;;;6288099;22;20304;-57
2023/08/30 00:44:24;;;;;;;15.50;14.10;;;12.70;1.00;;;;;;6341530;22;20524;-57
2023/08/30 00:46:50;;;;;;;15.60;14.33;;;12.70;1.00;;;;;;6341276;22;20354;-57
2023/08/30 00:49:15;;;;;;;13.30;12.10;;;12.80;1.00;;;;;;6342250;22;20381;-57
2023/08/30 00:51:41;;;;;;;14.57;13.30;;;12.90;1.00;;;;;;6342117;22;20148;-57
2023/08/30 00:54:07;;;;;;;15.03;13.63;;;12.90;1.00;;;;;;6341558;22;20147;-57
2023/08/30 00:56:33;;;;;;;15.90;14.40;;;12.90;1.00;;;;;;6341413;22;20311;-55
2023/08/30 00:58:59;;;;;;;14.87;13.67;;;12.90;1.00;;;;;;6314656;22;20154;-56
2023/08/30 01:01:24;;;;;;;14.67;13.37;;;12.90;1.00;;;;;;6341916;22;20151;-57
2023/08/30 01:03:50;;;;;;;14.33;13.13;;;12.90;1.00;;;;;;6314542;22;20772;-56
2023/08/30 01:06:16;;;;;;;14.40;13.20;;;12.90;1.00;;;;;;6342668;22;20440;-56
2023/08/30 01:08:42;;;;;;;15.67;14.37;;;12.80;1.00;;;;;;6342063;22;20159;-58
2023/08/30 01:11:26;;;;;;;14.30;13.10;;;12.80;1.00;;;;;;6315081;22;20156;-57
2023/08/30 01:14:00;;;;;;;14.00;12.90;;;12.80;1.00;;;;;;6343037;22;20387;-57
2023/08/30 01:16:26;;;;;;;14.20;13.10;;;12.80;1.00;;;;;;6342842;22;20392;-55
2023/08/30 01:18:56;;;;;;;17.60;16.20;;;12.80;1.00;;;;;;6342199;22;20642;-59
2023/08/30 01:21:37;;;;;;;15.40;14.20;;;12.80;1.00;;;;;;6341814;22;20151;-56
2023/08/30 01:24:04;;;;;;;16.77;15.37;;;12.80;1.00;;;;;;6314361;22;20446;-56
2023/08/30 01:26:36;;;;;;;19.57;17.57;;;12.80;1.00;;;;;;6314242;22;20415;-60
2023/08/30 01:29:03;;;;;;;17.63;16.17;;;12.80;1.00;;;;;;6342262;22;20532;-52
2023/08/30 01:31:33;;;;;;;16.67;15.37;;;12.80;1.00;;;;;;6342466;22;20388;-55
2023/08/30 01:33:59;;;;;;;17.33;15.83;;;12.70;1.00;;;;;;6314353;22;20425;-54
2023/08/30 01:36:25;;;;;;;17.70;16.30;;;12.70;1.00;;;;;;6314077;22;20419;-54
2023/08/30 01:38:52;;;;;;;19.40;17.70;;;12.70;1.00;;;;;;6315224;22;20405;-53
2023/08/30 01:41:20;;;;;;;21.50;17.07;;;12.60;1.00;;;;;;6315091;22;20216;-55
2023/08/30 01:43:47;;;;;;;16.77;15.10;;;12.70;1.00;;;;;;6315031;22;20397;-57
2023/08/30 01:46:13;;;;;;;17.63;16.13;;;12.60;1.00;;;;;;6342478;22;20381;-56
2023/08/30 01:48:39;;;;;;;16.97;15.50;;;12.60;1.00;;;;;;6342296;22;20447;-56
2023/08/30 01:51:05;;;;;;;18.50;16.80;;;12.60;1.00;;;;;;6314892;22;20354;-57
2023/08/30 01:53:31;;;;;;;16.43;15.03;;;12.50;1.00;;;;;;6342261;22;20353;-57
2023/08/30 01:55:56;;;;;;;17.10;15.53;;;12.50;1.00;;;;;;6315007;22;20541;-55
2023/08/30 01:58:22;;;;;;;16.97;15.43;;;12.50;1.00;;;;;;6314609;22;20413;-56
2023/08/30 02:00:48;;;;;;;17.60;16.20;;;12.40;1.00;;;;;;6340283;22;20539;-55
2023/08/30 02:03:14;;;;;;;17.63;16.23;;;12.50;1.00;;;;;;6340740;22;20531;-55
2023/08/30 02:06:01;;;;;;;19.30;17.27;;;12.50;1.00;;;;;;6340213;22;20170;-56
2023/08/30 02:11:37;;;;;;;18.60;17.10;;;12.50;1.00;;;;;;6341491;22;20824;-57
2023/08/30 02:14:06;;;;;;;17.23;15.83;;;12.50;1.00;;;;;;6314185;22;20377;-53
2023/08/30 02:16:32;;;;;;;19.50;17.70;;;12.40;1.00;;;;;;6342115;22;20435;-58
2023/08/30 02:18:58;;;;;;;18.47;16.87;;;12.40;1.00;;;;;;6342649;22;20368;-56
2023/08/30 02:21:24;;;;;;;16.50;15.20;;;12.40;1.00;;;;;;6314016;22;20369;-57
2023/08/30 02:23:52;;;;;;;16.77;15.37;;;12.40;1.00;;;;;;6342197;22;20535;-56
2023/08/30 02:26:21;;;;;;;16.70;15.30;;;12.40;1.00;;;;;;6342664;22;20188;-56
2023/08/30 02:28:47;;;;;;;17.33;15.90;;;12.40;1.00;;;;;;6342444;22;20486;-57
2023/08/30 02:31:12;;;;;;;16.53;15.23;;;12.40;1.00;;;;;;6342341;22;20350;-54
2023/08/30 02:33:38;;;;;;;16.00;14.70;;;12.30;1.00;;;;;;6341832;22;20195;-57
2023/08/30 02:36:04;;;;;;;16.10;14.80;;;12.30;1.00;;;;;;6342429;22;20160;-56
2023/08/30 02:38:30;;;;;;;16.47;15.00;;;12.30;1.00;;;;;;6341589;22;20151;-53
2023/08/30 02:40:56;;;;;;;15.77;14.47;;;12.30;1.00;;;;;;6314043;22;20779;-55
2023/08/30 02:43:27;;;;;;;16.80;15.23;;;12.20;1.00;;;;;;6342861;22;20162;-55
2023/08/30 02:45:53;;;;;;;16.00;14.73;;;12.20;1.00;;;;;;6343714;22;20535;-56
2023/08/30 02:48:19;;;;;;;14.10;12.80;;;12.10;1.00;;;;;;6343803;22;20436;-55
2023/08/30 02:50:44;;;;;;;17.27;15.77;;;12.10;1.00;;;;;;6316354;22;20148;-57
2023/08/30 02:53:10;;;;;;;15.10;13.80;;;12.10;1.00;;;;;;6343538;22;20173;-56
2023/08/30 02:55:36;;;;;;;15.63;14.40;;;12.00;1.00;;;;;;6343839;22;20183;-54
2023/08/30 02:58:01;;;;;;;14.80;13.63;;;12.00;1.00;;;;;;6343610;22;20451;-55
2023/08/30 03:00:27;;;;;;;14.93;13.67;;;12.00;1.00;;;;;;6343515;22;20220;-55
2023/08/30 03:02:53;;;;;;;15.40;14.20;;;12.00;1.00;;;;;;6344204;22;20357;-56
2023/08/30 03:05:19;;;;;;;15.80;14.60;;;11.90;1.00;;;;;;6316453;22;20174;-55
2023/08/30 03:07:45;;;;;;;14.87;13.60;;;11.90;1.00;;;;;;6343713;22;20163;-57
2023/08/30 03:10:12;;;;;;;16.20;14.90;;;11.90;1.00;;;;;;6343717;22;20416;-55
2023/08/30 03:12:37;;;;;;;16.60;15.20;;;11.90;1.00;;;;;;6343284;22;20181;-56
2023/08/30 03:15:04;;;;;;;16.60;15.00;;;11.90;1.00;;;;;;6344466;22;20409;-55
2023/08/30 03:17:30;;;;;;;17.03;15.63;;;11.90;1.00;;;;;;6343072;22;20169;-57
2023/08/30 03:19:56;;;;;;;17.40;15.90;;;11.90;1.00;;;;;;6317466;22;20614;-56
2023/08/30 03:22:21;;;;;;;17.77;15.90;;;11.80;1.00;;;;;;6344031;22;20468;-56
2023/08/30 03:24:49;;;;;;;17.10;15.70;;;11.80;1.00;;;;;;6343267;22;20155;-56
2023/08/30 03:27:14;;;;;;;17.53;16.03;;;11.80;1.00;;;;;;6343651;22;20420;-57
2023/08/30 03:29:40;;;;;;;18.60;17.00;;;11.90;1.00;;;;;;6342907;22;20428;-57
2023/08/30 03:32:06;;;;;;;18.80;16.90;;;11.90;1.00;;;;;;6341955;22;20163;-57
2023/08/30 03:34:31;;;;;;;16.80;15.30;;;11.90;1.00;;;;;;6343454;22;20162;-56
2023/08/30 03:36:57;;;;;;;17.63;16.13;;;11.90;1.00;;;;;;6344170;22;20534;-54
2023/08/30 03:39:24;;;;;;;19.10;17.20;;;11.90;1.00;;;;;;6343135;22;20238;-56
2023/08/30 03:41:50;;;;;;;18.40;16.80;;;11.90;1.00;;;;;;6343202;22;20148;-56
2023/08/30 03:44:16;;;;;;;18.40;15.90;;;11.90;1.00;;;;;;6342902;22;20468;-56
2023/08/30 03:46:45;;;;;;;17.20;15.60;;;11.90;1.00;;;;;;6291010;22;20374;-57
2023/08/30 03:49:12;;;;;;;16.30;14.80;;;11.90;1.00;;;;;;6316548;22;20436;-57
2023/08/30 03:51:39;;;;;;;17.43;16.03;;;11.90;1.00;;;;;;6345093;22;20812;-56
2023/08/30 03:54:05;;;;;;;15.93;14.63;;;11.90;1.00;;;;;;6316417;22;20400;-57
2023/08/30 03:56:36;;;;;;;16.70;15.30;;;11.90;1.00;;;;;;6343145;22;20381;-56
2023/08/30 03:59:02;;;;;;;15.97;14.57;;;11.90;1.00;;;;;;6316961;22;20171;-57
2023/08/30 04:01:31;;;;;;;18.20;16.60;;;11.90;1.00;;;;;;6317499;22;20760;-57
2023/08/30 04:03:57;;;;;;;17.40;15.90;;;11.90;1.00;;;;;;6317797;22;20162;-56
2023/08/30 04:06:25;;;;;;;17.43;15.83;;;11.90;1.00;;;;;;6343517;22;20382;-56
2023/08/30 04:08:52;;;;;;;16.60;14.90;;;11.90;1.00;;;;;;6342393;22;20270;-60
2023/08/30 04:11:18;;;;;;;18.17;16.57;;;11.90;1.00;;;;;;6344684;22;20971;-57
2023/08/30 04:13:43;;;;;;;18.23;16.27;;;11.90;1.00;;;;;;6316171;22;20377;-57
2023/08/30 04:16:14;;;;;;;18.33;16.73;;;11.90;1.00;;;;;;6344294;22;20385;-57
2023/08/30 04:18:40;;;;;;;16.60;15.13;;;11.90;1.00;;;;;;6314876;22;20163;-55
2023/08/30 04:21:07;;;;;;;19.30;17.30;;;11.90;1.00;;;;;;6341295;22;20403;-57
2023/08/30 04:23:33;;;;;;;18.23;16.53;;;11.90;1.00;;;;;;6340914;22;20539;-56
2023/08/30 04:25:58;;;;;;;16.40;15.10;;;11.90;1.00;;;;;;6339406;22;20461;-56
2023/08/30 04:28:26;;;;;;;18.30;16.70;;;11.90;1.00;;;;;;6340006;22;20194;-56
2023/08/30 04:30:54;;;;;;;16.93;15.47;;;11.90;1.00;;;;;;6313479;22;20139;-58
2023/08/30 04:33:20;;;;;;;17.27;15.63;;;11.90;1.00;;;;;;6313408;22;20437;-57
2023/08/30 04:35:51;;;;;;;17.00;15.33;;;11.90;1.00;;;;;;6339977;22;20354;-57
2023/08/30 04:38:17;;;;;;;16.90;15.30;;;11.90;1.00;;;;;;6342012;22;20152;-55
2023/08/30 04:40:43;;;;;;;15.87;14.47;;;11.90;1.00;;;;;;6340927;22;20402;-56
2023/08/30 04:43:08;;;;;;;17.50;15.90;;;11.90;1.00;;;;;;6342642;22;20153;-56
2023/08/30 04:45:35;;;;;;;17.80;16.20;;;11.90;1.00;;;;;;6341692;22;20842;-56
2023/08/30 04:48:01;;;;;;;16.90;15.30;;;12.00;1.00;;;;;;6341386;22;20574;-55
2023/08/30 04:50:27;;;;;;;16.13;14.83;;;12.00;1.00;;;;;;6315325;22;20366;-56
2023/08/30 04:52:53;;;;;;;18.27;16.77;;;12.00;1.00;;;;;;6342275;22;20596;-58
2023/08/30 04:55:19;;;;;;;16.70;15.20;;;11.90;1.00;;;;;;6313394;22;20166;-57
2023/08/30 04:57:45;;;;;;;16.67;15.20;;;11.90;1.00;;;;;;6340666;22;20637;-57
2023/08/30 05:00:12;;;;;;;17.20;15.67;;;12.00;1.00;;;;;;6341353;22;20515;-57
2023/08/30 05:02:38;;;;;;;17.27;15.67;;;12.00;1.00;;;;;;6342146;22;20438;-56
2023/08/30 05:05:03;;;;;;;18.17;16.67;;;12.00;1.00;;;;;;6340754;22;20404;-56
2023/08/30 05:07:29;;;;;;;16.90;15.50;;;12.00;1.00;;;;;;6340416;22;20183;-56
2023/08/30 05:09:55;;;;;;;15.47;14.07;;;12.00;1.00;;;;;;6340651;22;20382;-57
2023/08/30 05:12:21;;;;;;;17.57;15.83;;;12.10;1.00;;;;;;6341444;22;20157;-56
2023/08/30 05:14:46;;;;;;;17.73;16.23;;;12.00;1.00;;;;;;6341884;22;20431;-55
2023/08/30 05:17:12;;;;;;;16.97;15.17;;;12.10;1.00;;;;;;6341974;22;20450;-56
2023/08/30 05:19:38;;;;;;;17.20;15.60;;;12.10;1.00;;;;;;6314057;22;20167;-57
2023/08/30 05:22:03;;;;;;;16.97;15.47;;;12.10;1.00;;;;;;6313973;22;20185;-57
2023/08/30 05:24:29;;;;;;;17.30;15.77;;;12.20;1.00;;;;;;6340490;22;20533;-56
2023/08/30 05:26:55;;;;;;;15.07;13.83;;;12.20;1.00;;;;;;6339747;22;20555;-55
2023/08/30 05:29:20;;;;;;;17.17;15.70;;;12.30;1.00;;;;;;6340867;22;20153;-57
2023/08/30 05:31:46;;;;;;;17.70;16.00;;;12.40;1.00;;;;;;6342468;22;20469;-57
2023/08/30 05:34:12;;;;;;;16.80;15.30;;;12.40;1.00;;;;;;6342041;22;20568;-56
2023/08/30 05:36:38;;;;;;;17.87;16.27;;;12.40;1.00;;;;;;6341117;22;20174;-56
2023/08/30 05:39:06;;;;;;;16.40;14.70;;;12.40;1.00;;;;;;6342611;22;20624;-57
2023/08/30 05:41:31;;;;;;;15.03;13.70;;;12.50;1.00;;;;;;6341983;22;20416;-55
2023/08/30 05:43:57;;;;;;;18.17;16.57;;;12.60;1.00;;;;;;6313082;22;20381;-55
2023/08/30 05:46:24;;;;;;;17.50;15.87;;;12.60;1.00;;;;;;6342944;22;20235;-52
2023/08/30 05:48:50;;;;;;;14.73;13.50;;;12.60;1.00;;;;;;6340220;22;20186;-57
2023/08/30 05:51:16;;;;;;;17.03;15.60;;;12.70;1.00;;;;;;6340385;22;20766;-56
2023/08/30 05:53:41;;;;;;;16.50;15.10;;;12.70;1.00;;;;;;6339347;22;20131;-57
2023/08/30 05:56:07;;;;;;;15.00;13.70;;;12.80;1.00;;;;;;6341812;22;20305;-55
2023/08/30 05:58:33;;;;;;;14.97;13.60;;;12.80;1.00;;;;;;6311830;22;20600;-56
2023/08/30 06:01:00;;;;;;;15.00;13.80;;;12.90;1.00;;;;;;6338261;22;20158;-56
2023/08/30 06:03:26;;;;;;;13.90;12.60;;;12.90;1.00;;;;;;6338609;22;20171;-55
2023/08/30 06:05:52;;;;;;;15.40;14.00;;;13.00;1.00;;;;;;6286644;22;20404;-56
2023/08/30 06:08:18;;;;;;;15.33;13.97;;;13.10;1.00;;;;;;6310084;22;20190;-56
2023/08/30 06:10:44;;;;;;;14.90;13.60;;;13.10;1.00;;;;;;6337691;22;20389;-55
2023/08/30 06:13:10;;;;;;;16.23;14.83;;;13.20;1.00;;;;;;6338055;22;20373;-56
2023/08/30 06:15:38;;;;;;;14.70;13.40;;;13.20;1.00;;;;;;6311359;22;20636;-55
2023/08/30 06:18:07;;;;;;;15.30;13.80;;;13.20;1.00;;;;;;6340612;22;20357;-55
2023/08/30 06:20:37;;;;;;;14.67;13.27;;;13.20;1.00;;;;;;6314452;22;20496;-56
2023/08/30 06:23:04;;;;;;;15.27;13.77;;;13.20;1.00;;;;;;6340861;22;20369;-56
2023/08/30 06:25:29;;;;;;;14.70;13.40;;;13.20;1.00;;;;;;6339351;22;20693;-54
2023/08/30 06:27:58;;;;;;;14.47;13.17;;;13.30;1.00;;;;;;6337933;22;20546;-56
2023/08/30 06:30:25;;;;;;;14.27;13.07;;;13.30;1.00;;;;;;6338293;22;20228;-56
2023/08/30 06:32:51;;;;;;;13.97;12.77;;;13.30;1.00;;;;;;6312313;22;20688;-55
2023/08/30 06:35:18;;;;;;;12.70;11.50;;;13.20;1.00;;;;;;6311259;22;20481;-57
2023/08/30 06:37:43;;;;;;;13.03;11.93;;;13.30;99.90;;;;;;6339465;22;20151;-56
2023/08/30 06:40:09;;;;;;;12.33;11.33;;;13.30;99.90;;;;;;6338028;22;20404;-56
2023/08/30 06:42:35;;;;;;;12.13;11.00;;;13.40;1.00;;;;;;6339102;22;20139;-55
2023/08/30 06:45:02;;;;;;;13.77;11.30;;;13.50;1.00;;;;;;6337572;22;20446;-56
2023/08/30 06:47:28;;;;;;;10.33;9.53;;;13.50;99.90;;;;;;6337924;22;20232;-55
2023/08/30 06:49:53;;;;;;;13.37;12.10;;;13.50;99.90;;;;;;6337593;22;20789;-56
2023/08/30 06:52:19;;;;;;;12.47;11.27;;;13.60;99.90;;;;;;6335684;22;20151;-53
2023/08/30 06:54:44;;;;;;;12.40;11.27;;;13.60;99.90;;;;;;6339046;22;20131;-55
2023/08/30 06:57:10;;;;;;;12.20;11.10;;;13.60;99.90;;;;;;6340127;22;20158;-54
2023/08/30 06:59:36;;;;;;;11.70;10.60;;;13.70;99.90;;;;;;6313070;22;20211;-57
2023/08/30 07:02:02;;;;;;;11.83;10.83;;;13.70;99.90;;;;;;6313017;22;20427;-53
2023/08/30 07:04:28;;;;;;;12.00;10.90;;;13.80;99.90;;;;;;6339759;22;20147;-56
2023/08/30 07:06:54;;;;;;;9.90;9.07;;;13.90;99.90;;;;;;6339515;22;20445;-56
2023/08/30 07:09:19;;;;;;;11.27;10.17;;;13.90;99.90;;;;;;6339549;22;20147;-55
2023/08/30 07:11:45;;;;;;;12.83;11.73;;;13.90;99.90;;;;;;6340337;22;20147;-57
2023/08/30 07:14:12;;;;;;;12.10;11.10;;;13.80;99.90;;;;;;6340695;22;20162;-56
2023/08/30 07:16:38;;;;;;;12.23;11.03;;;13.90;99.90;;;;;;6340755;22;20453;-56
2023/08/30 07:19:03;;;;;;;12.20;11.20;;;14.00;99.90;;;;;;6340291;22;20361;-57
2023/08/30 07:21:29;;;;;;;13.17;11.53;;;14.00;99.90;;;;;;6339729;22;20210;-57
2023/08/30 07:23:56;;;;;;;10.80;9.90;;;13.90;99.90;;;;;;6338137;22;20151;-56
2023/08/30 07:26:22;;;;;;;11.40;10.50;;;13.90;99.90;;;;;;6339303;22;20152;-55
2023/08/30 07:28:49;;;;;;;11.20;10.20;;;14.00;99.90;;;;;;6338477;22;20734;-57
2023/08/30 07:31:16;;;;;;;10.60;9.60;;;14.10;99.90;;;;;;6337753;22;20132;-57
2023/08/30 07:33:41;;;;;;;10.93;10.03;;;14.10;99.90;;;;;;6338706;22;20440;-56
2023/08/30 07:36:08;;;;;;;7.80;7.13;;;13.90;99.90;;;;;;6340354;22;20446;-57
2023/08/30 07:38:34;;;;;;;7.63;7.00;;;14.20;1.00;;;;;;6343425;22;20182;-56
2023/08/30 07:41:00;;;;;;;11.00;10.10;;;14.80;1.00;;;;;;6315034;22;20401;-56
2023/08/30 07:43:26;;;;;;;10.40;9.60;;;15.10;1.00;;;;;;6339694;22;20447;-55
2023/08/30 07:45:52;;;;;;;9.50;8.70;;;15.10;99.90;;;;;;6312089;22;20638;-56
2023/08/30 07:48:17;;;;;;;10.93;10.03;;;15.00;1.00;;;;;;6338535;22;20186;-53
2023/08/30 07:50:45;;;;;;;11.13;10.10;;;14.70;31.80;;;;;;6339031;22;20171;-57
2023/08/30 07:53:12;;;;;;;10.57;9.50;;;14.50;99.90;;;;;;6338211;22;20144;-54
2023/08/30 07:55:38;;;;;;;11.73;10.83;;;14.40;62.00;;;;;;6311073;22;20390;-54
2023/08/30 07:58:03;;;;;;;9.90;9.00;;;14.40;99.90;;;;;;6339521;22;20780;-57
2023/08/30 08:00:29;;;;;;;10.40;9.50;;;14.30;99.90;;;;;;6341150;22;20147;-56
2023/08/30 08:02:56;;;;;;;10.43;9.63;;;14.30;99.90;;;;;;6339645;22;20476;-56
2023/08/30 08:05:22;;;;;;;11.37;10.40;;;14.50;99.90;;;;;;6339288;22;20400;-56
2023/08/30 08:07:51;;;;;;;10.77;9.77;;;14.50;76.00;;;;;;6340804;22;20424;-55
2023/08/30 08:10:17;;;;;;;10.00;9.20;;;14.70;99.90;;;;;;6341403;22;20136;-58
2023/08/30 08:12:42;;;;;;;10.30;9.50;;;15.00;1.00;;;;;;6343141;22;20769;-57
2023/08/30 08:15:08;;;;;;;10.33;9.23;;;15.10;1.00;;;;;;6341848;22;20284;-56
2023/08/30 08:17:34;;;;;;;9.70;8.70;;;15.30;1.00;;;;;;6342873;22;20159;-57
2023/08/30 08:20:00;;;;;;;9.20;8.10;;;15.50;1.00;;;;;;6315019;22;20496;-55
2023/08/30 08:22:26;;;;;;;8.90;8.20;;;15.80;1.00;;;;;;6340960;22;20173;-57
2023/08/30 08:24:53;;;;;;;8.80;7.90;;;16.00;82.50;;;;;;6340193;22;20156;-57
2023/08/30 08:27:19;;;;;;;8.43;7.77;;;16.10;20.30;;;;;;6341476;22;20912;-58
2023/08/30 08:29:45;;;;;;;10.33;9.30;;;16.20;43.60;;;;;;6339165;22;20373;-57
2023/08/30 08:32:10;;;;;;;9.60;8.80;;;16.40;1.00;;;;;;6313679;22;20165;-56
2023/08/30 08:34:36;;;;;;;10.53;9.60;;;16.40;99.90;;;;;;6340358;22;20473;-58
2023/08/30 08:37:02;;;;;;;9.83;9.00;;;16.40;99.90;;;;;;6341109;22;20217;-56
2023/08/30 08:39:28;;;;;;;9.83;8.93;;;16.40;1.00;;;;;;6341983;22;20220;-57
2023/08/30 08:41:54;;;;;;;8.50;7.87;;;16.70;1.00;;;;;;6314152;22;20150;-57
2023/08/30 08:44:21;;;;;;;9.47;8.67;;;16.90;99.90;;;;;;6338936;22;20158;-56
2023/08/30 08:46:48;;;;;;;8.17;7.57;;;16.90;99.90;;;;;;6315043;22;20443;-56
2023/08/30 08:49:16;;;;;;;9.67;8.87;;;17.40;1.00;;;;;;6311683;22;20424;-58
2023/08/30 08:51:43;;;;;;;9.67;8.70;;;17.70;1.00;;;;;;6340208;22;20672;-56
2023/08/30 08:54:09;;;;;;;12.13;8.40;;;18.10;1.00;;;;;;6341151;22;20381;-57
2023/08/30 08:56:36;;;;;;;8.80;8.00;;;18.30;1.00;;;;;;6289439;22;20401;-55
2023/08/30 08:59:02;;;;;;;9.23;8.53;;;18.30;99.90;;;;;;6313925;22;20392;-56
2023/08/30 09:01:29;;;;;;;8.63;8.03;;;18.30;99.90;;;;;;6340920;22;20365;-55
2023/08/30 09:03:56;;;;;;;8.30;7.60;;;18.30;1.00;;;;;;6311891;22;20389;-55
2023/08/30 09:06:24;;;;;;;9.13;8.43;;;18.20;99.90;;;;;;6311922;22;20484;-57
2023/08/30 09:08:54;;;;;;;8.07;7.33;;;18.20;79.10;;;;;;6309750;22;20527;-56
2023/08/30 09:11:20;;;;;;;8.20;7.60;;;18.40;1.00;;;;;;6308445;22;20385;-57
2023/08/30 09:13:46;;;;;;;8.27;7.30;;;18.50;1.00;;;;;;6336872;22;20401;-57
2023/08/30 09:16:15;;;;;;;8.30;7.70;;;18.50;99.90;;;;;;6309103;22;20205;-56
2023/08/30 09:18:42;;;;;;;8.73;8.03;;;18.30;1.00;;;;;;6337874;22;20406;-58
2023/08/30 09:21:12;;;;;;;8.53;7.93;;;18.20;99.90;;;;;;6309781;22;20389;-58
2023/08/30 09:23:38;;;;;;;6.63;6.13;;;18.20;1.00;;;;;;6337940;22;20480;-57
2023/08/30 09:26:04;;;;;;;7.67;7.07;;;18.90;1.00;;;;;;6336910;22;20676;-58
2023/08/30 09:28:31;;;;;;;7.27;6.67;;;19.70;1.00;;;;;;6338088;22;20410;-54
2023/08/30 09:31:01;;;;;;;7.03;6.00;;;20.70;37.20;;;;;;6337998;22;20401;-57
2023/08/30 09:33:34;;;;;;;6.10;5.60;;;21.20;1.00;;;;;;6336447;22;20941;-56
2023/08/30 09:36:01;;;;;;;5.47;5.07;;;21.70;99.90;;;;;;6338790;22;20749;-56
2023/08/30 09:38:27;;;;;;;7.20;5.60;;;21.80;99.90;;;;;;6338883;22;20390;-57
2023/08/30 09:41:05;;;;;;;5.77;5.33;;;21.60;99.90;;;;;;6339138;22;20438;-57
2023/08/30 09:43:35;;;;;;;6.00;5.40;;;21.80;99.90;;;;;;6340026;22;20381;-57
2023/08/30 09:46:09;;;;;;;6.30;5.70;;;22.10;99.90;;;;;;6339367;22;20381;-57
2023/08/30 09:48:40;;;;;;;5.90;5.30;;;22.20;99.90;;;;;;6309644;22;20475;-58
2023/08/30 09:51:09;;;;;;;5.10;4.70;;;22.60;99.90;;;;;;6337817;22;20405;-58
2023/08/30 09:53:43;;;;;;;5.20;4.80;;;23.20;68.20;;;;;;6310287;22;20393;-57
2023/08/30 09:56:12;;;;;;;5.80;5.40;;;24.00;20.30;;;;;;6307767;22;20354;-59
2023/08/30 09:58:39;;;;;;;5.30;4.90;;;24.20;1.00;;;;;;6337039;22;20381;-58
2023/08/30 10:01:06;;;;;;;5.67;5.10;;;24.90;1.00;;;;;;6311485;22;20377;-58
2023/08/30 10:03:33;;;;;;;5.50;5.10;;;24.80;1.00;;;;;;6338893;22;20480;-57
2023/08/30 10:06:00;;;;;;;5.10;4.70;;;25.40;1.00;;;;;;6311609;22;20377;-58
2023/08/30 10:08:30;;;;;;;4.90;4.50;;;25.80;1.00;;;;;;6338200;22;20551;-57
2023/08/30 10:10:58;;;;;;;4.70;4.30;;;26.20;1.00;;;;;;6338355;22;20353;-59
2023/08/30 10:13:25;;;;;;;4.10;3.70;;;26.90;1.00;;;;;;6338859;22;20372;-59
2023/08/30 10:15:53;;;;;;;4.73;4.23;;;27.80;1.00;;;;;;6338135;22;20733;-59
2023/08/30 10:18:20;;;;;;;5.30;4.90;;;27.70;1.00;;;;;;6310857;22;20737;-57
2023/08/30 10:20:47;;;;;;;4.10;3.80;;;27.40;1.00;;;;;;6337816;22;20458;-58
2023/08/30 10:23:14;;;;;;;4.50;4.10;;;28.00;1.00;;;;;;6336347;22;20412;-59
2023/08/30 10:25:41;;;;;;;2.93;2.73;;;28.20;1.00;;;;;;6307196;22;20468;-58
2023/08/30 10:28:08;;;;;;;3.53;3.10;;;28.00;1.00;;;;;;6310187;22;20417;-58
2023/08/30 10:30:34;;;;;;;3.80;3.50;;;27.30;1.00;;;;;;6339140;22;20385;-59
2023/08/30 10:33:00;;;;;;;4.50;4.10;;;26.60;1.00;;;;;;6338312;22;20435;-58
2023/08/30 10:35:26;;;;;;;3.30;3.10;;;26.10;1.00;;;;;;6336513;22;20209;-57
2023/08/30 10:37:56;;;;;;;3.50;3.30;;;25.30;1.00;;;;;;6335949;22;20158;-57
2023/08/30 10:40:22;;;;;;;4.10;3.80;;;25.10;1.00;;;;;;6309549;22;20155;-58
2023/08/30 10:43:04;;;;;;;3.80;3.43;;;25.90;1.00;;;;;;6336043;22;20393;-57
2023/08/30 10:45:30;;;;;;;4.30;3.90;;;26.90;1.00;;;;;;6337251;22;20147;-56
2023/08/30 10:47:57;;;;;;;3.80;3.50;;;27.30;1.00;;;;;;6338336;22;20770;-56
2023/08/30 10:50:30;;;;;;;4.30;3.90;;;26.70;1.00;;;;;;6338762;22;20150;-54
2023/08/30 10:52:56;;;;;;;4.43;4.03;;;26.70;1.00;;;;;;6337949;22;20333;-54
2023/08/30 10:55:22;;;;;;;4.13;3.83;;;26.10;1.00;;;;;;6311907;22;20381;-52
2023/08/30 10:58:00;;;;;;;4.10;3.63;;;25.10;1.00;;;;;;6337579;22;20381;-53
2023/08/30 11:00:31;;;;;;;4.27;3.87;;;24.30;1.00;;;;;;6309386;22;20393;-56
2023/08/30 11:02:57;;;;;;;4.43;4.03;;;23.80;1.00;;;;;;6337245;22;20412;-53
2023/08/30 11:05:25;;;;;;;4.23;3.83;;;23.50;1.00;;;;;;6336688;22;20400;-55
2023/08/30 11:07:52;;;;;;;3.90;3.50;;;23.30;1.00;;;;;;6335727;22;20459;-56
2023/08/30 11:10:20;;;;;;;5.10;4.70;;;23.40;1.00;;;;;;6337981;22;20391;-53
2023/08/30 11:12:46;;;;;;;5.07;4.67;;;23.00;1.00;;;;;;6338271;22;20723;-55
2023/08/30 11:15:14;;;;;;;4.50;4.20;;;22.80;1.00;;;;;;6312285;22;20376;-51
2023/08/30 11:17:40;;;;;;;4.07;3.77;;;22.90;1.00;;;;;;6339736;22;20414;-56
2023/08/30 11:20:08;;;;;;;4.00;3.70;;;22.70;1.00;;;;;;6312624;22;20373;-54
2023/08/30 11:22:49;;;;;;;3.97;3.67;;;22.90;1.00;;;;;;6341071;22;20393;-53
2023/08/30 11:25:19;;;;;;;4.30;4.00;;;22.70;1.00;;;;;;6314677;22;21089;-55
2023/08/30 11:27:55;;;;;;;4.07;3.67;;;22.40;1.00;;;;;;6341524;22;20412;-55
2023/08/30 11:30:28;;;;;;;4.70;4.30;;;22.40;1.00;;;;;;6313756;22;20461;-56
2023/08/30 11:32:55;;;;;;;3.97;3.67;;;22.40;1.00;;;;;;6341275;22;20454;-52
2023/08/30 11:35:23;;;;;;;4.80;4.40;;;21.80;1.00;;;;;;6313982;22;20480;-52
2023/08/30 11:37:49;;;;;;;4.03;3.33;;;21.50;1.00;;;;;;6342093;22;20131;-51
2023/08/30 11:40:15;;;;;;;2.47;2.27;;;20.50;1.00;;;;;;6341452;22;20416;-55
2023/08/30 11:42:41;;;;;;;3.47;2.60;;;19.80;1.00;;;;;;6312589;22;20479;-51
2023/08/30 11:45:07;;;;;;;3.27;2.47;;;19.30;1.00;;;;;;6313328;22;20205;-53
2023/08/30 11:47:34;;;;;;;4.13;2.50;;;18.90;1.00;;;;;;6340539;22;20179;-52
2023/08/30 11:50:00;;;;;;;5.63;3.30;;;18.60;1.00;;;;;;6340565;22;20361;-51
2023/08/30 11:52:26;;;;;;;3.70;3.00;;;18.10;99.90;;;;;;6339628;22;20361;-51
2023/08/30 11:54:52;;;;;;;3.97;2.90;;;17.50;1.00;;;;;;6340140;22;20420;-51
2023/08/30 11:57:18;;;;;;;4.30;3.57;;;17.30;99.90;;;;;;6337976;22;20831;-53
2023/08/30 11:59:43;;;;;;;5.07;4.60;;;17.10;99.90;;;;;;6312487;22;20374;-51
2023/08/30 12:02:11;;;;;;;4.70;4.30;;;17.10;83.00;;;;;;6340654;22;20136;-52
2023/08/30 12:04:45;;;;;;;6.20;3.90;;;17.00;1.00;;;;;;6312256;22;20167;-54
2023/08/30 12:07:20;;;;;;;4.57;4.07;;;16.90;78.30;;;;;;6339584;22;20406;-52
2023/08/30 12:09:46;;;;;;;4.37;3.97;;;17.00;92.10;;;;;;6339350;22;20412;-50
2023/08/30 12:12:12;;;;;;;4.43;4.07;;;17.10;99.90;;;;;;6337961;22;20384;-50
2023/08/30 12:14:37;;;;;;;4.80;4.00;;;17.20;1.00;;;;;;6339001;22;20151;-50
2023/08/30 12:17:04;;;;;;;5.00;4.60;;;17.40;1.00;;;;;;6338427;22;20124;-51
2023/08/30 12:19:31;;;;;;;4.57;4.17;;;17.50;1.00;;;;;;6338669;22;20220;-51
2023/08/30 12:22:04;;;;;;;4.33;4.03;;;17.70;45.00;;;;;;6340163;22;20413;-52
2023/08/30 12:24:41;;;;;;;5.33;4.83;;;17.90;99.90;;;;;;6340399;22;20393;-53
2023/08/30 12:27:06;;;;;;;5.07;4.57;;;18.00;1.00;;;;;;6339721;22;20391;-53
2023/08/30 12:29:32;;;;;;;5.07;4.60;;;18.00;1.00;;;;;;6340640;22;20416;-53
2023/08/30 12:31:58;;;;;;;5.50;4.33;;;18.10;1.00;;;;;;6340158;22;20136;-52
2023/08/30 12:34:23;;;;;;;3.30;2.97;;;18.20;1.00;;;;;;6341531;22;20482;-50
2023/08/30 12:36:49;;;;;;;4.50;4.10;;;18.40;1.00;;;;;;6340135;22;20204;-53
2023/08/30 12:39:15;;;;;;;4.27;3.87;;;18.60;1.00;;;;;;6340223;22;20151;-55
2023/08/30 12:41:42;;;;;;;3.90;3.60;;;18.70;99.90;;;;;;6341306;22;20535;-54
2023/08/30 12:44:08;;;;;;;4.03;3.63;;;18.80;1.00;;;;;;6339776;22;20200;-53